Time;durP1;ratioP1;P1;durP2;ratioP2;P2;SDS_P1;SDS_P2;PMS_P1;PMS_P2;Temp;Humidity;BMP_temperature;BMP_pressure;BME280_temperature;BME280_humidity;BME280_pressure;Samples;Min_cycle;Max_cycle;Signal;HPM_P1;HPM_P2
2022/11/16 00:02:11;;;;;;;;;3.00;2.00;;;;;18.62;48.84;99537.41;5067576;28;46012;-57
2022/11/16 00:04:37;;;;;;;;;2.00;1.00;;;;;18.62;48.38;99540.88;5060801;28;45927;-56
2022/11/16 00:07:03;;;;;;;;;2.00;1.00;;;;;18.62;48.30;99540.88;5059594;28;45311;-55
2022/11/16 00:09:32;;;;;;;;;1.50;1.50;;;;;18.65;48.70;99542.44;5059406;28;45585;-56
2022/11/16 00:12:03;;;;;;;;;1.00;1.00;;;;;18.64;48.28;99548.63;5058920;28;45505;-56
2022/11/16 00:14:31;;;;;;;;;1.00;1.00;;;;;18.64;48.62;99548.63;5058905;28;45323;-56
2022/11/16 00:16:57;;;;;;;;;2.75;2.75;;;;;18.61;48.24;99540.97;5058907;28;45412;-56
2022/11/16 00:19:23;;;;;;;;;1.75;1.00;;;;;18.61;48.70;99539.19;5059524;28;45346;-57
2022/11/16 00:21:49;;;;;;;;;3.00;1.00;;;;;18.63;48.30;99544.31;5059802;28;47435;-55
2022/11/16 00:24:17;;;;;;;;;1.00;1.00;;;;;18.63;48.60;99550.41;5060250;28;45365;-56
2022/11/16 00:26:43;;;;;;;;;1.25;1.25;;;;;18.63;48.50;99553.03;5081098;28;45182;-56
2022/11/16 00:29:13;;;;;;;;;1.00;1.00;;;;;18.63;48.54;99541.69;5086013;28;44765;-55
2022/11/16 00:31:39;;;;;;;;;2.50;1.50;;;;;18.61;48.48;99540.97;5083949;28;45573;-56
2022/11/16 00:34:04;;;;;;;;;2.00;1.00;;;;;18.63;48.69;99549.56;5067960;28;69856;-58
2022/11/16 00:36:29;;;;;;;;;1.00;1.00;;;;;18.63;48.65;99544.31;5069872;28;53762;-56
2022/11/16 00:38:54;;;;;;;;;1.00;1.00;;;;;18.61;48.24;99540.97;5060021;28;56305;-56
2022/11/16 00:41:20;;;;;;;;;1.00;1.00;;;;;18.62;48.19;99543.50;5076523;28;72226;-56
2022/11/16 00:43:45;;;;;;;;;2.50;1.00;;;;;18.60;48.75;99537.50;5072798;28;45312;-54
2022/11/16 00:46:10;;;;;;;;;1.00;1.00;;;;;18.63;48.55;99541.69;5059838;28;45360;-56
2022/11/16 00:48:36;;;;;;;;;4.75;1.00;;;;;18.62;48.33;99534.78;5059143;28;45604;-56
2022/11/16 00:51:01;;;;;;;;;2.00;1.00;;;;;18.60;48.51;99539.28;5060557;28;46063;-57
2022/11/16 00:53:29;;;;;;;;;1.00;1.00;;;;;18.63;48.30;99539.06;5060529;28;45464;-57
2022/11/16 00:55:55;;;;;;;;;1.00;1.00;;;;;18.62;48.36;99540.88;5059609;28;45368;-56
2022/11/16 00:58:20;;;;;;;;;2.00;2.00;;;;;18.60;48.35;99527.00;5058288;28;48178;-57
2022/11/16 01:00:46;;;;;;;;;2.50;1.25;;;;;18.62;48.41;99540.88;5059458;28;45352;-56
2022/11/16 01:03:14;;;;;;;;;3.00;1.00;;;;;18.61;48.34;99535.72;5058893;28;45342;-56
2022/11/16 01:05:39;;;;;;;;;1.00;1.00;;;;;18.60;48.48;99541.91;5058488;28;45391;-56
2022/11/16 01:08:05;;;;;;;;;1.25;1.25;;;;;18.62;48.40;99551.38;5058937;28;45370;-55
2022/11/16 01:10:31;;;;;;;;;1.00;1.00;;;;;18.62;48.05;99559.25;5057742;28;46433;-57
2022/11/16 01:12:57;;;;;;;;;1.00;1.00;;;;;18.61;48.08;99551.47;5058033;28;45365;-57
2022/11/16 01:15:25;;;;;;;;;1.75;1.00;;;;;18.62;48.26;99548.75;5057985;28;45294;-53
2022/11/16 01:17:52;;;;;;;;;2.50;1.50;;;;;18.61;48.37;99543.59;5057821;28;45244;-56
2022/11/16 01:20:20;;;;;;;;;1.00;1.00;;;;;18.62;48.42;99545.28;5058424;28;46101;-56
2022/11/16 01:22:46;;;;;;;;;1.50;1.00;;;;;18.60;48.26;99539.28;5057781;28;45247;-56
2022/11/16 01:25:12;;;;;;;;;3.00;0.50;;;;;18.62;48.29;99550.50;5061818;28;45276;-56
2022/11/16 01:27:38;;;;;;;;;1.00;1.00;;;;;18.60;48.35;99537.50;5082760;28;44744;-56
2022/11/16 01:30:05;;;;;;;;;1.00;1.00;;;;;18.61;48.38;99535.72;5084054;28;45074;-56
2022/11/16 01:32:30;;;;;;;;;1.50;1.00;;;;;18.61;47.92;99538.34;5068619;28;45408;-56
2022/11/16 01:34:56;;;;;;;;;5.00;1.00;;;;;18.60;48.34;99537.50;5058336;28;45331;-56
2022/11/16 01:37:21;;;;;;;;;4.50;1.75;;;;;18.61;48.10;99538.34;5057649;28;48359;-56
2022/11/16 01:39:48;;;;;;;;;1.00;1.00;;;;;18.61;48.38;99543.59;5057321;28;45307;-56
2022/11/16 01:42:18;;;;;;;;;0.00;0.00;;;;;18.61;47.95;99544.44;5057514;28;45443;-57
2022/11/16 01:44:44;;;;;;;;;3.00;0.50;;;;;18.61;48.03;99548.84;5057476;28;45231;-57
2022/11/16 01:47:12;;;;;;;;;1.00;1.00;;;;;18.60;48.02;99547.16;5057869;28;45527;-57
2022/11/16 01:49:43;;;;;;;;;1.25;1.00;;;;;18.61;48.30;99544.44;5065841;28;46175;-56
2022/11/16 01:52:13;;;;;;;;;2.00;1.00;;;;;18.60;48.36;99544.53;5069814;28;45346;-56
2022/11/16 01:54:42;;;;;;;;;2.75;0.75;;;;;18.60;48.21;99532.25;5060793;28;45307;-56
2022/11/16 01:57:12;;;;;;;;;1.00;1.00;;;;;18.59;48.04;99541.06;5060939;28;45282;-56
2022/11/16 01:59:39;;;;;;;;;1.00;1.00;;;;;18.60;47.90;99542.75;5059863;28;46313;-56
2022/11/16 02:02:04;;;;;;;;;1.00;1.00;;;;;18.60;48.25;99540.13;5056852;28;45809;-56
2022/11/16 02:04:29;;;;;;;;;1.75;0.25;;;;;18.58;48.04;99534.16;5057127;28;45445;-56
2022/11/16 02:06:55;;;;;;;;;2.50;1.00;;;;;18.60;47.96;99539.28;5057038;28;45635;-55
2022/11/16 02:09:52;;;;;;;;;2.33;1.67;;;;;18.60;47.81;99534.03;5056434;28;46141;-56
2022/11/16 02:12:36;;;;;;;;;3.00;1.00;;;;;18.60;47.95;99541.91;5056591;28;45784;-56
2022/11/16 02:15:17;;;;;;;;;1.00;1.00;;;;;18.58;48.22;99528.91;5056804;28;45363;-56
2022/11/16 02:18:02;;;;;;;;;1.00;1.00;;;;;18.59;47.90;99534.97;5056905;28;45481;-56
2022/11/16 02:20:38;;;;;;;;;1.50;0.25;;;;;18.59;47.79;99533.19;5059806;28;46007;-56
2022/11/16 02:23:31;;;;;;;;;0.25;0.25;;;;;18.59;47.75;99529.72;5066621;28;45390;-56
2022/11/16 02:26:24;;;;;;;;;0.25;0.25;;;;;18.60;47.59;99531.41;5057310;28;45327;-57
2022/11/16 02:28:58;;;;;;;;;0.75;0.75;;;;;18.59;47.81;99529.72;5057086;28;45214;-55
2022/11/16 02:31:29;;;;;;;;;1.75;0.50;;;;;18.60;48.28;99539.28;5056772;28;46185;-55
2022/11/16 02:33:56;;;;;;;;;1.75;1.50;;;;;18.58;47.78;99533.28;5056547;28;45748;-56
2022/11/16 02:36:24;;;;;;;;;1.25;1.25;;;;;18.57;47.99;99539.50;5056586;28;45431;-56
2022/11/16 02:38:59;;;;;;;;;0.00;0.00;;;;;18.58;47.91;99543.78;5056668;28;45220;-57
2022/11/16 02:41:28;;;;;;;;;1.00;1.00;;;;;18.59;48.16;99542.84;5056224;28;46090;-56
2022/11/16 02:44:05;;;;;;;;;1.00;0.00;;;;;18.58;47.94;99530.66;5056418;28;45802;-56
2022/11/16 02:46:36;;;;;;;;;1.50;0.00;;;;;18.56;47.72;99530.78;5057617;28;45363;-56
2022/11/16 02:49:08;;;;;;;;;1.00;1.00;;;;;18.56;47.76;99529.94;5057129;28;45425;-55
2022/11/16 02:51:36;;;;;;;;;1.00;1.00;;;;;18.58;47.70;99534.16;5056407;28;46342;-55
2022/11/16 02:54:11;;;;;;;;;1.00;1.00;;;;;18.58;47.73;99533.28;5056635;28;45213;-54
2022/11/16 02:56:58;;;;;;;;;0.75;0.75;;;;;18.58;48.27;99525.41;5058068;28;45357;-56
2022/11/16 02:59:29;;;;;;;;;0.00;0.00;;;;;18.57;47.96;99526.38;5071958;28;44662;-57
2022/11/16 03:02:09;;;;;;;;;3.00;1.00;;;;;18.58;47.89;99535.91;5067265;28;45211;-55
2022/11/16 03:04:59;;;;;;;;;0.50;0.50;;;;;18.58;48.00;99526.28;5080636;28;45472;-55
2022/11/16 03:07:31;;;;;;;;;2.00;1.00;;;;;18.56;47.89;99519.47;5064869;28;44779;-57
2022/11/16 03:09:59;;;;;;;;;0.00;0.00;;;;;18.52;48.09;99519.66;5060521;28;45339;-56
2022/11/16 03:12:29;;;;;;;;;0.00;0.00;;;;;18.57;48.06;99526.38;5060331;28;46387;-57
2022/11/16 03:15:03;;;;;;;;;0.75;0.00;;;;;18.57;47.70;99518.50;5059915;28;45437;-56
2022/11/16 03:17:43;;;;;;;;;1.25;1.00;;;;;18.54;47.73;99512.53;5058330;28;45360;-57
2022/11/16 03:20:14;;;;;;;;;1.00;1.00;;;;;18.56;47.90;99508.97;5059889;28;45334;-57
2022/11/16 03:22:51;;;;;;;;;0.00;0.00;;;;;18.57;48.02;99502.78;5059546;28;46751;-56
2022/11/16 03:25:18;;;;;;;;;1.00;1.00;;;;;18.53;47.77;99505.59;5059974;28;45845;-56
2022/11/16 03:27:57;;;;;;;;;1.00;1.00;;;;;18.54;47.94;99504.66;5059810;28;45367;-56
2022/11/16 03:30:25;;;;;;;;;0.00;0.00;;;;;18.55;47.35;99505.47;5059840;28;45366;-56
2022/11/16 03:33:06;;;;;;;;;2.00;0.25;;;;;18.55;47.66;99500.22;5060372;28;46107;-56
2022/11/16 03:35:37;;;;;;;;;1.00;1.00;;;;;18.52;47.69;99488.16;5062602;28;45211;-54
2022/11/16 03:38:05;;;;;;;;;1.00;1.00;;;;;18.55;47.31;99489.75;5061048;28;45330;-53
2022/11/16 03:40:33;;;;;;;;;1.25;0.00;;;;;18.54;47.55;99488.06;5062294;28;45219;-57
2022/11/16 03:43:01;;;;;;;;;1.00;1.00;;;;;18.56;47.47;99493.22;5061326;28;46859;-57
2022/11/16 03:45:27;;;;;;;;;1.00;1.00;;;;;18.54;47.30;99491.53;5065761;28;45419;-56
2022/11/16 03:47:53;;;;;;;;;1.00;1.00;;;;;18.55;47.78;99487.13;5061749;28;45739;-57
2022/11/16 03:50:19;;;;;;;;;0.00;0.00;;;;;18.54;47.69;99481.03;5059949;28;45252;-57
2022/11/16 03:52:44;;;;;;;;;3.00;1.00;;;;;18.54;47.41;99481.03;5058784;28;46090;-56
2022/11/16 03:55:10;;;;;;;;;0.00;0.00;;;;;18.54;47.56;99475.78;5057675;28;69333;-57
2022/11/16 03:57:35;;;;;;;;;3.75;0.00;;;;;18.54;47.31;99474.94;5059315;28;45224;-57
2022/11/16 04:00:00;;;;;;;;;0.00;0.00;;;;;18.52;47.47;99472.44;5059641;28;45228;-57
2022/11/16 04:02:26;;;;;;;;;0.25;0.25;;;;;18.53;47.82;99474.09;5058627;28;46436;-56
2022/11/16 04:24:31;;;;;;;;;1.00;0.00;;;;;18.51;47.71;99462.03;5059042;28;45682;-55
2022/11/16 04:29:46;;;;;;;;;1.25;0.00;;;;;18.48;47.76;99457.00;5062782;28;45656;-56
2022/11/16 04:37:51;;;;;;;;;0.00;0.00;;;;;18.48;47.26;99449.13;5082618;28;44982;-53
2022/11/16 04:40:24;;;;;;;;;0.00;0.00;;;;;18.49;47.53;99458.69;5061104;28;45398;-54
2022/11/16 04:43:02;;;;;;;;;1.50;1.00;;;;;18.50;47.16;99463.00;5068634;28;45331;-57
2022/11/16 04:48:12;;;;;;;;;1.75;0.00;;;;;18.49;47.61;99461.31;5076757;28;45302;-56
2022/11/16 04:50:39;;;;;;;;;0.25;0.25;;;;;18.50;47.17;99457.75;5059149;28;45433;-55
2022/11/16 04:53:05;;;;;;;;;0.00;0.00;;;;;18.47;47.04;99456.16;5059627;28;46061;-56
2022/11/16 04:55:30;;;;;;;;;0.00;0.00;;;;;18.49;47.53;99456.06;5059277;28;46527;-56
2022/11/16 04:57:56;;;;;;;;;0.25;0.25;;;;;18.49;46.96;99462.13;5058541;28;45460;-56
2022/11/16 05:00:21;;;;;;;;;0.00;0.00;;;;;18.49;47.39;99456.88;5058529;28;45370;-57
2022/11/16 05:02:46;;;;;;;;;1.00;0.00;;;;;18.49;47.38;99454.25;5060388;28;45567;-56
2022/11/16 05:05:13;;;;;;;;;0.25;0.00;;;;;18.49;47.42;99446.38;5060572;28;57333;-56
2022/11/16 05:07:38;;;;;;;;;1.00;0.00;;;;;18.48;47.05;99451.75;5059485;28;45796;-56
2022/11/16 05:10:05;;;;;;;;;0.50;0.00;;;;;18.48;47.24;99443.88;5062140;28;45461;-56
2022/11/16 05:12:31;;;;;;;;;2.00;0.25;;;;;18.48;47.00;99449.97;5076629;28;44786;-56
2022/11/16 05:14:56;;;;;;;;;0.00;0.00;;;;;18.47;47.45;99450.06;5070592;28;47182;-60
2022/11/16 05:17:23;;;;;;;;;0.00;0.00;;;;;18.49;47.31;99448.19;5057749;28;45424;-56
2022/11/16 05:22:32;;;;;;;;;1.50;0.50;;;;;18.47;47.46;99450.91;5057736;28;45390;-57
2022/11/16 05:24:58;;;;;;;;;2.00;0.00;;;;;18.49;46.93;99448.19;5068410;28;47678;-56
2022/11/16 05:27:25;;;;;;;;;2.00;0.00;;;;;18.47;47.17;99443.03;5075437;28;44734;-56
2022/11/16 05:29:51;;;;;;;;;0.00;0.00;;;;;18.48;47.04;99449.13;5068469;28;45405;-53
2022/11/16 05:32:18;;;;;;;;;2.00;0.00;;;;;18.46;46.95;99440.53;5087338;28;44934;-57
2022/11/16 05:34:44;;;;;;;;;1.00;0.00;;;;;18.46;47.16;99445.78;5065197;28;45259;-55
2022/11/16 05:37:10;;;;;;;;;1.00;0.00;;;;;18.47;47.13;99443.03;5057910;28;45461;-57
2022/11/16 05:39:36;;;;;;;;;1.25;0.50;;;;;18.47;47.04;99448.28;5058335;28;45423;-55
2022/11/16 05:42:01;;;;;;;;;0.00;0.00;;;;;18.45;47.22;99439.69;5059975;28;46977;-56
2022/11/16 05:44:26;;;;;;;;;2.00;1.00;;;;;18.47;47.36;99437.78;5057187;28;46072;-56
2022/11/16 05:46:52;;;;;;;;;1.00;1.00;;;;;18.46;47.02;99433.50;5057718;28;45256;-57
2022/11/16 05:49:18;;;;;;;;;2.00;0.25;;;;;18.47;47.00;99432.53;5057866;28;45315;-57
2022/11/16 05:51:45;;;;;;;;;1.25;0.00;;;;;18.48;47.00;99436.84;5057893;28;45532;-56
2022/11/16 05:54:12;;;;;;;;;0.25;0.25;;;;;18.47;47.33;99448.28;5057099;28;46278;-57
2022/11/16 05:56:37;;;;;;;;;0.00;0.00;;;;;18.48;47.33;99441.25;5056803;28;45401;-57
2022/11/16 05:59:02;;;;;;;;;1.00;1.00;;;;;18.47;47.26;99440.41;5057010;28;45252;-56
2022/11/16 06:01:28;;;;;;;;;0.00;0.00;;;;;18.47;47.49;99443.03;5057025;28;55537;-57
2022/11/16 06:03:53;;;;;;;;;0.75;0.00;;;;;18.48;47.33;99442.09;5057652;28;45350;-57
2022/11/16 06:06:19;;;;;;;;;0.50;0.00;;;;;18.47;47.21;99436.97;5058974;28;45433;-56
2022/11/16 06:08:45;;;;;;;;;0.00;0.00;;;;;18.46;47.18;99436.13;5058504;28;45426;-54
2022/11/16 06:11:10;;;;;;;;;0.00;0.00;;;;;18.48;46.92;99436.00;5059053;28;45231;-57
2022/11/16 06:13:36;;;;;;;;;1.50;0.00;;;;;18.47;47.28;99445.66;5059544;28;47075;-56
2022/11/16 06:16:03;;;;;;;;;0.75;0.00;;;;;18.48;47.27;99444.72;5057450;28;45411;-55
2022/11/16 06:18:28;;;;;;;;;0.00;0.00;;;;;18.48;47.31;99447.34;5056905;28;45328;-52
2022/11/16 06:20:54;;;;;;;;;0.00;0.00;;;;;18.47;47.31;99440.41;5056937;28;45292;-56
2022/11/16 06:23:20;;;;;;;;;0.50;0.50;;;;;18.49;46.75;99450.81;5056477;28;45788;-55
2022/11/16 06:25:46;;;;;;;;;1.00;1.00;;;;;18.45;47.19;99439.69;5056529;28;45686;-55
2022/11/16 06:28:12;;;;;;;;;0.00;0.00;;;;;18.48;47.37;99446.50;5055811;28;60435;-54
2022/11/16 06:30:39;;;;;;;;;0.50;0.50;;;;;18.46;46.92;99433.50;5056936;28;45540;-54
2022/11/16 06:33:05;;;;;;;;;0.00;0.00;;;;;18.44;47.29;99440.63;5056904;28;46318;-55
2022/11/16 06:35:30;;;;;;;;;2.75;0.00;;;;;18.47;47.55;99436.97;5077568;28;44785;-56
2022/11/16 06:37:56;;;;;;;;;0.25;0.25;;;;;18.47;47.20;99431.72;5067587;28;45191;-57
2022/11/16 06:40:22;;;;;;;;;1.50;0.00;;;;;18.46;47.19;99436.13;5057521;28;45260;-55
2022/11/16 06:42:47;;;;;;;;;0.50;0.50;;;;;18.46;47.25;99433.50;5058605;28;46303;-55
2022/11/16 06:45:12;;;;;;;;;1.67;0.67;;;;;18.45;47.34;99434.44;5057291;28;64027;-56
2022/11/16 06:47:38;;;;;;;;;2.00;0.00;;;;;18.44;46.89;99430.16;5054895;28;45384;-56
2022/11/16 06:50:03;;;;;;;;;0.00;0.00;;;;;18.44;47.27;99431.91;5056228;28;45532;-55
2022/11/16 06:52:29;;;;;;;;;0.25;0.25;;;;;18.45;46.72;99423.94;5054648;28;45390;-56
2022/11/16 06:54:54;;;;;;;;;0.50;0.50;;;;;18.45;47.42;99428.34;5055564;28;45600;-57
2022/11/16 06:57:19;;;;;;;;;1.25;0.00;;;;;18.46;47.29;99435.28;5056146;28;45410;-56
2022/11/16 06:59:45;;;;;;;;;1.50;0.00;;;;;18.45;47.16;99439.69;5055779;28;45467;-55
2022/11/16 07:02:10;;;;;;;;;0.25;0.00;;;;;18.44;47.19;99432.75;5054373;28;66860;-57
2022/11/16 07:04:36;;;;;;;;;0.00;0.00;;;;;18.45;47.25;99429.19;5056343;28;45452;-57
2022/11/16 07:07:01;;;;;;;;;0.00;0.00;;;;;18.44;47.06;99427.53;5056446;28;45464;-57
2022/11/16 07:09:26;;;;;;;;;0.00;0.00;;;;;18.43;46.76;99420.59;5057127;28;45509;-57
2022/11/16 07:11:52;;;;;;;;;0.25;0.00;;;;;18.44;47.26;99435.38;5056956;28;49497;-56
2022/11/16 07:14:17;;;;;;;;;0.00;0.00;;;;;18.44;47.00;99435.38;5061979;28;45252;-57
2022/11/16 07:16:42;;;;;;;;;0.50;0.50;;;;;18.45;47.23;99439.69;5078776;28;45856;-58
2022/11/16 07:19:08;;;;;;;;;1.00;1.00;;;;;18.45;47.13;99439.69;5071959;28;45397;-57
2022/11/16 07:21:35;;;;;;;;;3.25;0.50;;;;;18.44;47.20;99445.88;5075179;28;46406;-57
2022/11/16 07:24:00;;;;;;;;;1.00;0.00;;;;;18.44;47.43;99445.88;5076423;28;45174;-57
2022/11/16 07:26:27;;;;;;;;;0.00;0.00;;;;;18.46;47.20;99453.63;5059269;28;45983;-55
2022/11/16 07:28:52;;;;;;;;;1.75;1.00;;;;;18.44;46.98;99453.75;5056482;28;45300;-56
2022/11/16 07:31:18;;;;;;;;;0.00;0.00;;;;;18.44;46.86;99442.41;5056431;28;55725;-56
2022/11/16 07:33:43;;;;;;;;;0.00;0.00;;;;;18.44;46.96;99443.25;5055707;28;51664;-56
2022/11/16 07:36:11;;;;;;;;;0.00;0.00;;;;;18.45;47.01;99444.94;5057218;28;45497;-56
2022/11/16 07:38:37;;;;;;;;;0.50;0.00;;;;;18.45;46.85;99444.09;5056025;28;45576;-60
2022/11/16 07:41:05;;;;;;;;;0.50;0.50;;;;;18.45;47.26;99444.09;5055856;28;46507;-55
2022/11/16 07:43:33;;;;;;;;;0.75;0.75;;;;;18.44;47.28;99443.25;5057433;28;45292;-55
2022/11/16 07:46:07;;;;;;;;;0.00;0.00;;;;;18.45;47.27;99444.09;5059585;28;45425;-54
2022/11/16 07:48:33;;;;;;;;;1.50;1.00;;;;;18.44;47.27;99448.50;5072331;28;45370;-55
2022/11/16 07:51:03;;;;;;;;;0.00;0.00;;;;;18.43;47.04;99441.56;5072589;28;45378;-55
2022/11/16 07:53:29;;;;;;;;;2.00;1.00;;;;;18.45;47.34;99438.84;5062151;28;45271;-56
2022/11/16 07:55:55;;;;;;;;;2.00;1.00;;;;;18.44;47.13;99439.78;5063446;28;45866;-55
2022/11/16 07:58:22;;;;;;;;;0.00;0.00;;;;;18.45;47.16;99442.31;5064252;28;45597;-54
2022/11/16 08:00:47;;;;;;;;;0.75;0.75;;;;;18.44;46.79;99434.53;5062102;28;46353;-56
2022/11/16 08:03:13;;;;;;;;;0.75;0.50;;;;;18.44;47.34;99451.13;5059035;28;45364;-54
2022/11/16 08:05:38;;;;;;;;;2.75;0.25;;;;;18.46;47.26;99449.25;5062320;28;45292;-57
2022/11/16 08:08:04;;;;;;;;;0.00;0.00;;;;;18.44;46.93;99445.03;5062635;28;45248;-54
2022/11/16 08:10:29;;;;;;;;;2.00;0.75;;;;;18.45;46.87;99447.56;5062645;28;46203;-53
2022/11/16 08:12:56;;;;;;;;;0.00;0.00;;;;;18.45;47.14;99451.97;5062078;28;45488;-55
2022/11/16 08:15:22;;;;;;;;;0.00;0.00;;;;;18.46;46.95;99451.88;5065562;28;45189;-56
2022/11/16 08:17:47;;;;;;;;;0.75;0.75;;;;;18.44;47.36;99448.50;5063590;28;45532;-57
2022/11/16 08:20:13;;;;;;;;;1.00;0.00;;;;;18.45;47.29;99447.56;5063571;28;57091;-54
2022/11/16 08:22:38;;;;;;;;;0.00;0.00;;;;;18.46;47.34;99443.16;5068299;28;45340;-55
2022/11/16 08:25:04;;;;;;;;;0.50;0.50;;;;;18.46;47.28;99451.00;5074919;28;44692;-55
2022/11/16 08:27:31;;;;;;;;;1.50;1.00;;;;;18.45;47.36;99444.94;5065923;28;45296;-57
2022/11/16 08:29:56;;;;;;;;;1.75;1.00;;;;;18.42;47.46;99444.28;5064683;28;45574;-56
2022/11/16 08:32:22;;;;;;;;;1.00;1.00;;;;;18.46;47.19;99454.50;5068384;28;45336;-57
2022/11/16 08:34:47;;;;;;;;;1.75;1.00;;;;;18.44;46.92;99448.50;5061708;28;45490;-56
2022/11/16 08:37:12;;;;;;;;;0.50;0.00;;;;;18.44;47.26;99448.50;5072768;28;46382;-56
2022/11/16 08:39:38;;;;;;;;;1.00;0.00;;;;;18.47;47.25;99458.78;5066842;28;46539;-55
2022/11/16 08:42:03;;;;;;;;;1.00;0.50;;;;;18.45;47.09;99446.72;5072317;28;45472;-61
2022/11/16 08:44:29;;;;;;;;;2.50;1.00;;;;;18.46;47.28;99441.38;5071269;28;45501;-55
2022/11/16 08:46:54;;;;;;;;;1.00;1.00;;;;;18.48;47.21;99441.25;5068834;28;45362;-55
2022/11/16 08:49:20;;;;;;;;;2.25;1.25;;;;;18.46;47.22;99441.38;5073092;28;46262;-57
2022/11/16 08:51:45;;;;;;;;;1.00;1.00;;;;;18.46;46.92;99443.16;5073511;28;45295;-55
2022/11/16 08:54:10;;;;;;;;;1.00;1.00;;;;;18.47;46.96;99439.59;5075995;28;64945;-55
2022/11/16 08:56:35;;;;;;;;;1.75;1.00;;;;;18.45;47.02;99439.69;5070683;28;54973;-57
2022/11/16 08:59:01;;;;;;;;;2.00;1.00;;;;;18.46;47.32;99441.38;5064438;28;45666;-57
2022/11/16 09:01:29;;;;;;;;;2.00;1.00;;;;;18.47;47.12;99436.97;5058706;28;45260;-57
2022/11/16 09:03:54;;;;;;;;;1.25;1.00;;;;;18.45;47.02;99423.94;5058062;28;45352;-57
2022/11/16 09:06:21;;;;;;;;;1.75;1.00;;;;;18.47;46.81;99432.53;5059479;28;45252;-57
2022/11/16 09:08:47;;;;;;;;;0.25;0.25;;;;;18.46;47.06;99430.88;5060023;28;45687;-57
2022/11/16 09:11:16;;;;;;;;;1.00;1.00;;;;;18.46;47.18;99424.78;5061097;28;45229;-56
2022/11/16 09:13:43;;;;;;;;;0.75;0.75;;;;;18.48;46.96;99426.34;5065738;28;45423;-56
2022/11/16 09:16:08;;;;;;;;;1.00;1.00;;;;;18.48;47.02;99418.47;5062991;28;45217;-57
2022/11/16 09:18:34;;;;;;;;;0.00;0.00;;;;;18.47;47.47;99427.28;5061509;28;47026;-57
2022/11/16 09:21:00;;;;;;;;;1.00;0.50;;;;;18.47;46.97;99421.22;5066263;28;45233;-57
2022/11/16 09:23:25;;;;;;;;;0.75;0.75;;;;;18.48;47.33;99431.59;5071520;28;45276;-56
2022/11/16 09:25:51;;;;;;;;;0.00;0.00;;;;;18.48;47.17;99434.22;5065082;28;45247;-54
2022/11/16 09:28:17;;;;;;;;;0.75;0.75;;;;;18.47;46.97;99427.28;5058615;28;46227;-56
2022/11/16 09:30:45;;;;;;;;;1.25;1.25;;;;;18.47;47.32;99427.28;5061253;28;45311;-57
2022/11/16 09:33:11;;;;;;;;;1.00;0.00;;;;;18.49;46.93;99419.31;5059522;28;45390;-55
2022/11/16 09:35:36;;;;;;;;;0.50;0.50;;;;;18.48;47.31;99421.09;5067458;28;45476;-56
2022/11/16 09:38:02;;;;;;;;;1.00;1.00;;;;;18.49;46.98;99420.16;5070063;28;47096;-56
2022/11/16 09:40:35;;;;;;;;;1.50;0.00;;;;;18.50;47.24;99427.09;5067906;28;45327;-54
2022/11/16 09:43:08;;;;;;;;;1.50;1.00;;;;;18.50;47.18;99413.97;5059618;28;45379;-55
2022/11/16 09:45:50;;;;;;;;;4.00;1.00;;;;;18.49;47.05;99403.59;5080585;28;45607;-56
2022/11/16 09:48:17;;;;;;;;;0.25;0.00;;;;;18.49;47.24;99399.16;5084500;28;46145;-56
2022/11/16 09:50:45;;;;;;;;;2.00;0.75;;;;;18.50;47.25;99395.59;5081426;28;45146;-57
2022/11/16 09:53:26;;;;;;;;;0.00;0.00;;;;;18.49;47.23;99388.66;5076698;28;45362;-56
2022/11/16 09:55:53;;;;;;;;;1.00;1.00;;;;;18.49;47.11;99403.59;5058729;28;45238;-59
2022/11/16 09:58:27;;;;;;;;;1.75;0.00;;;;;18.50;47.19;99410.50;5065266;28;45582;-57
2022/11/16 10:00:58;;;;;;;;;0.00;0.00;;;;;18.51;47.32;99399.06;5058257;28;45384;-56
2022/11/16 10:03:25;;;;;;;;;0.00;0.00;;;;;18.50;47.38;99400.84;5074622;28;45231;-57
2022/11/16 10:06:19;;;;;;;;;1.00;0.00;;;;;18.51;47.09;99404.31;5067861;28;45229;-56
2022/11/16 10:08:47;;;;;;;;;1.25;0.75;;;;;18.52;47.54;99393.72;5059023;28;45558;-56
2022/11/16 10:11:39;;;;;;;;;0.25;0.00;;;;;18.50;47.53;99379.03;5061568;28;46169;-56
2022/11/16 10:14:46;;;;;;;;;0.25;0.00;;;;;18.51;47.60;99381.53;5079093;28;45305;-57
2022/11/16 10:17:37;;;;;;;;;2.00;1.00;;;;;18.52;47.37;99392.88;5032521;28;45584;-56
2022/11/16 10:20:23;;;;;;;;;1.00;1.00;;;;;18.52;47.29;99400.75;5057275;28;47185;-56
2022/11/16 10:23:03;;;;;;;;;0.00;0.00;;;;;18.51;47.54;99415.66;5058846;28;45227;-54
2022/11/16 10:25:42;;;;;;;;;0.25;0.25;;;;;18.51;47.54;99414.81;5059674;28;45351;-55
2022/11/16 10:28:44;;;;;;;;;1.50;0.50;;;;;18.53;47.21;99420.78;5071437;28;45319;-55
2022/11/16 10:31:17;;;;;;;;;1.00;1.00;;;;;18.53;47.48;99403.28;5078701;28;45458;-57
2022/11/16 10:33:44;;;;;;;;;1.00;1.00;;;;;18.51;47.44;99413.03;5069421;28;45810;-57
2022/11/16 10:36:14;;;;;;;;;1.00;1.00;;;;;18.52;47.58;99412.09;5058088;28;45358;-57
2022/11/16 10:38:41;;;;;;;;;0.25;0.25;;;;;18.54;47.78;99410.19;5066580;28;45239;-57
2022/11/16 10:41:23;;;;;;;;;2.00;1.00;;;;;18.52;47.70;99403.38;5066090;28;46419;-59
2022/11/16 10:43:48;;;;;;;;;0.25;0.25;;;;;18.53;47.51;99410.28;5072252;28;45732;-57
2022/11/16 10:46:43;;;;;;;;;0.50;0.50;;;;;18.54;47.23;99404.94;5055395;28;45194;-57
2022/11/16 10:49:32;;;;;;;;;1.00;1.00;;;;;18.56;47.67;99404.00;5056509;28;45490;-57
2022/11/16 10:51:57;;;;;;;;;0.75;0.00;;;;;18.55;47.21;99395.28;5056608;28;46383;-57
2022/11/16 10:54:23;;;;;;;;;1.00;1.00;;;;;18.56;47.48;99388.25;5056475;28;45326;-57
2022/11/16 10:56:57;;;;;;;;;1.75;1.00;;;;;18.56;47.68;99373.34;5056711;28;45484;-57
2022/11/16 10:59:41;;;;;;;;;2.75;1.00;;;;;18.57;47.04;99368.94;5057177;28;45396;-55
2022/11/16 11:02:21;;;;;;;;;0.50;0.50;;;;;18.57;47.58;99371.56;5064797;28;45406;-56
2022/11/16 11:05:16;;;;;;;;;1.00;0.00;;;;;18.56;47.33;99368.09;5080411;28;45168;-58
2022/11/16 11:07:51;;;;;;;;;0.75;0.75;;;;;18.54;47.51;99360.34;5058423;28;45426;-58
2022/11/16 11:10:32;;;;;;;;;1.75;1.00;;;;;18.59;47.71;99369.66;5056658;28;45507;-57
2022/11/16 11:13:11;;;;;;;;;0.75;0.75;;;;;18.58;47.75;99360.97;5056528;28;47344;-57
2022/11/16 11:15:41;;;;;;;;;1.00;1.00;;;;;18.58;47.68;99370.59;5058924;28;45396;-57
2022/11/16 11:18:22;;;;;;;;;0.00;0.00;;;;;18.59;47.80;99361.78;5060463;28;45243;-56
2022/11/16 11:20:50;;;;;;;;;2.00;1.00;;;;;18.59;47.68;99351.28;5058083;28;45595;-57
2022/11/16 11:23:23;;;;;;;;;1.00;1.00;;;;;18.60;47.83;99358.22;5064065;28;46233;-57
2022/11/16 11:25:59;;;;;;;;;1.50;1.00;;;;;18.60;47.45;99356.44;5069616;28;45234;-57
2022/11/16 11:28:30;;;;;;;;;0.50;0.50;;;;;18.54;47.24;99339.34;5067603;28;45220;-57
2022/11/16 11:30:59;;;;;;;;;0.25;0.25;;;;;18.60;47.37;99345.94;5065077;28;45406;-57
2022/11/16 11:33:33;;;;;;;;;1.00;1.00;;;;;18.61;47.69;99334.50;5063747;28;45265;-57
2022/11/16 11:36:06;;;;;;;;;1.00;1.00;;;;;18.61;47.68;99342.38;5064441;28;45395;-55
2022/11/16 11:38:34;;;;;;;;;1.00;1.00;;;;;18.60;47.13;99326.72;5063098;28;45397;-55
2022/11/16 11:41:04;;;;;;;;;0.00;0.00;;;;;18.61;47.38;99336.28;5063875;28;45490;-56
2022/11/16 11:43:32;;;;;;;;;0.00;0.00;;;;;18.62;47.66;99343.22;5059913;28;46331;-55
2022/11/16 11:46:10;;;;;;;;;1.00;1.00;;;;;18.62;47.53;99330.09;5059209;28;45951;-56
2022/11/16 11:48:46;;;;;;;;;1.00;0.50;;;;;18.62;47.68;99333.56;5057948;28;45309;-55
2022/11/16 11:51:34;;;;;;;;;2.00;1.00;;;;;18.62;47.27;99333.56;5059310;28;45478;-55
2022/11/16 11:54:01;;;;;;;;;2.00;0.00;;;;;18.63;47.30;99326.53;5058972;28;47329;-55
2022/11/16 11:56:30;;;;;;;;;2.25;0.25;;;;;18.62;47.18;99327.47;5059078;28;45825;-55
2022/11/16 11:58:56;;;;;;;;;0.25;0.25;;;;;18.62;47.32;99316.97;5059525;28;45202;-56
2022/11/16 12:01:27;;;;;;;;;0.00;0.00;;;;;18.64;47.38;99322.94;5072810;28;45247;-55
2022/11/16 12:04:17;;;;;;;;;1.75;1.00;;;;;18.64;47.37;99315.06;5075054;28;47063;-55
2022/11/16 12:06:42;;;;;;;;;0.00;0.00;;;;;18.63;47.61;99311.59;5061982;28;45727;-54
2022/11/16 12:09:13;;;;;;;;;0.00;0.00;;;;;18.63;47.45;99321.28;5060664;28;45244;-55
2022/11/16 12:12:07;;;;;;;;;0.00;0.00;;;;;18.63;47.61;99314.22;5063109;28;45576;-56
2022/11/16 12:14:53;;;;;;;;;2.00;1.00;;;;;18.63;47.71;99316.03;5059127;28;45395;-55
2022/11/16 12:17:43;;;;;;;;;0.00;0.00;;;;;18.63;47.46;99310.78;5047290;28;45512;-56
2022/11/16 12:20:26;;;;;;;;;2.50;1.00;;;;;18.65;47.51;99316.75;5059284;28;45366;-56